sensor_id;sensor_type;location;lat;lon;timestamp;temperature;humidity
19813;DHT22;10066;48.108;11.448;2023-07-13T00:00:49;18.40;99.90
19813;DHT22;10066;48.108;11.448;2023-07-13T00:03:16;18.40;99.90
19813;DHT22;10066;48.108;11.448;2023-07-13T00:05:45;18.40;99.90
19813;DHT22;10066;48.108;11.448;2023-07-13T00:08:13;18.40;99.90
19813;DHT22;10066;48.108;11.448;2023-07-13T00:10:40;18.40;99.90
19813;DHT22;10066;48.108;11.448;2023-07-13T00:13:07;18.40;99.90
19813;DHT22;10066;48.108;11.448;2023-07-13T00:15:34;18.40;99.90
19813;DHT22;10066;48.108;11.448;2023-07-13T00:18:01;18.40;99.90
19813;DHT22;10066;48.108;11.448;2023-07-13T00:20:28;18.40;99.90
19813;DHT22;10066;48.108;11.448;2023-07-13T00:22:56;18.40;99.90
19813;DHT22;10066;48.108;11.448;2023-07-13T00:25:23;18.40;99.90
19813;DHT22;10066;48.108;11.448;2023-07-13T00:27:51;18.40;99.90
19813;DHT22;10066;48.108;11.448;2023-07-13T00:30:18;18.50;99.90
19813;DHT22;10066;48.108;11.448;2023-07-13T00:32:45;18.50;99.90
19813;DHT22;10066;48.108;11.448;2023-07-13T00:35:14;18.50;99.90
19813;DHT22;10066;48.108;11.448;2023-07-13T00:37:41;18.50;99.90
19813;DHT22;10066;48.108;11.448;2023-07-13T00:40:11;18.50;99.90
19813;DHT22;10066;48.108;11.448;2023-07-13T00:42:39;18.50;99.90
19813;DHT22;10066;48.108;11.448;2023-07-13T00:47:50;18.50;99.90
19813;DHT22;10066;48.108;11.448;2023-07-13T00:50:18;18.50;99.90
19813;DHT22;10066;48.108;11.448;2023-07-13T00:52:49;18.60;99.90
19813;DHT22;10066;48.108;11.448;2023-07-13T00:55:18;18.50;99.90
19813;DHT22;10066;48.108;11.448;2023-07-13T00:57:47;18.50;99.90
19813;DHT22;10066;48.108;11.448;2023-07-13T01:00:15;18.60;99.90
19813;DHT22;10066;48.108;11.448;2023-07-13T01:02:45;18.60;99.90
19813;DHT22;10066;48.108;11.448;2023-07-13T01:05:15;18.60;99.90
19813;DHT22;10066;48.108;11.448;2023-07-13T01:07:43;18.60;99.90
19813;DHT22;10066;48.108;11.448;2023-07-13T01:10:11;18.60;99.90
19813;DHT22;10066;48.108;11.448;2023-07-13T01:12:39;18.60;99.90
19813;DHT22;10066;48.108;11.448;2023-07-13T01:15:37;18.60;99.90
19813;DHT22;10066;48.108;11.448;2023-07-13T01:18:05;18.60;99.90
19813;DHT22;10066;48.108;11.448;2023-07-13T01:20:33;18.60;99.90
19813;DHT22;10066;48.108;11.448;2023-07-13T01:23:05;18.60;99.90
19813;DHT22;10066;48.108;11.448;2023-07-13T01:25:34;18.50;99.90
19813;DHT22;10066;48.108;11.448;2023-07-13T01:28:01;18.50;99.90
19813;DHT22;10066;48.108;11.448;2023-07-13T01:30:28;18.50;99.90
19813;DHT22;10066;48.108;11.448;2023-07-13T01:32:56;18.50;99.90
19813;DHT22;10066;48.108;11.448;2023-07-13T01:35:24;18.40;99.90
19813;DHT22;10066;48.108;11.448;2023-07-13T01:37:52;18.40;99.90
19813;DHT22;10066;48.108;11.448;2023-07-13T01:40:21;18.40;99.90
19813;DHT22;10066;48.108;11.448;2023-07-13T01:42:48;18.30;99.90
19813;DHT22;10066;48.108;11.448;2023-07-13T01:45:15;18.40;99.90
19813;DHT22;10066;48.108;11.448;2023-07-13T01:47:42;18.30;99.90
19813;DHT22;10066;48.108;11.448;2023-07-13T01:50:09;18.30;99.90
19813;DHT22;10066;48.108;11.448;2023-07-13T01:52:36;18.30;99.90
19813;DHT22;10066;48.108;11.448;2023-07-13T01:55:04;18.30;99.90
19813;DHT22;10066;48.108;11.448;2023-07-13T01:57:33;18.30;99.90
19813;DHT22;10066;48.108;11.448;2023-07-13T02:00:00;18.30;99.90
19813;DHT22;10066;48.108;11.448;2023-07-13T02:02:28;18.30;99.90
19813;DHT22;10066;48.108;11.448;2023-07-13T02:04:55;18.20;99.90
19813;DHT22;10066;48.108;11.448;2023-07-13T02:07:21;18.30;99.90
19813;DHT22;10066;48.108;11.448;2023-07-13T02:09:48;18.20;99.90
19813;DHT22;10066;48.108;11.448;2023-07-13T02:12:15;18.20;99.90
19813;DHT22;10066;48.108;11.448;2023-07-13T02:14:43;18.20;99.90
19813;DHT22;10066;48.108;11.448;2023-07-13T02:17:12;18.20;99.90
19813;DHT22;10066;48.108;11.448;2023-07-13T02:19:39;18.20;99.90
19813;DHT22;10066;48.108;11.448;2023-07-13T02:22:06;18.20;99.90
19813;DHT22;10066;48.108;11.448;2023-07-13T02:24:33;18.20;99.90
19813;DHT22;10066;48.108;11.448;2023-07-13T02:27:00;18.20;99.90
19813;DHT22;10066;48.108;11.448;2023-07-13T02:29:27;18.20;99.90
19813;DHT22;10066;48.108;11.448;2023-07-13T02:31:55;18.30;99.90
19813;DHT22;10066;48.108;11.448;2023-07-13T02:34:22;18.30;99.90
19813;DHT22;10066;48.108;11.448;2023-07-13T02:36:49;18.30;99.90
19813;DHT22;10066;48.108;11.448;2023-07-13T02:39:16;18.30;99.90
19813;DHT22;10066;48.108;11.448;2023-07-13T02:41:43;18.40;99.90
19813;DHT22;10066;48.108;11.448;2023-07-13T02:44:12;18.40;99.90
19813;DHT22;10066;48.108;11.448;2023-07-13T02:46:39;18.50;99.90
19813;DHT22;10066;48.108;11.448;2023-07-13T02:49:08;18.50;99.90
19813;DHT22;10066;48.108;11.448;2023-07-13T02:51:34;18.50;99.90
19813;DHT22;10066;48.108;11.448;2023-07-13T02:54:01;18.60;99.90
19813;DHT22;10066;48.108;11.448;2023-07-13T02:56:30;18.60;99.90
19813;DHT22;10066;48.108;11.448;2023-07-13T02:58:58;18.60;99.90
19813;DHT22;10066;48.108;11.448;2023-07-13T03:01:24;18.60;99.90
19813;DHT22;10066;48.108;11.448;2023-07-13T03:03:52;18.60;99.90
19813;DHT22;10066;48.108;11.448;2023-07-13T03:06:20;18.60;99.90
19813;DHT22;10066;48.108;11.448;2023-07-13T03:08:48;18.60;99.90
19813;DHT22;10066;48.108;11.448;2023-07-13T03:11:18;18.50;99.90
19813;DHT22;10066;48.108;11.448;2023-07-13T03:13:45;18.40;99.90
19813;DHT22;10066;48.108;11.448;2023-07-13T03:16:14;18.20;99.90
19813;DHT22;10066;48.108;11.448;2023-07-13T03:18:41;18.10;99.90
19813;DHT22;10066;48.108;11.448;2023-07-13T03:21:09;17.90;99.90
19813;DHT22;10066;48.108;11.448;2023-07-13T03:23:37;17.70;99.90
19813;DHT22;10066;48.108;11.448;2023-07-13T03:26:06;17.60;99.90
19813;DHT22;10066;48.108;11.448;2023-07-13T03:28:33;17.60;99.90
19813;DHT22;10066;48.108;11.448;2023-07-13T03:31:02;17.50;99.90
19813;DHT22;10066;48.108;11.448;2023-07-13T03:33:29;17.40;99.90
19813;DHT22;10066;48.108;11.448;2023-07-13T03:35:56;17.40;99.90
19813;DHT22;10066;48.108;11.448;2023-07-13T03:38:23;17.30;99.90
19813;DHT22;10066;48.108;11.448;2023-07-13T03:40:53;17.30;99.90
19813;DHT22;10066;48.108;11.448;2023-07-13T03:43:20;17.20;99.90
19813;DHT22;10066;48.108;11.448;2023-07-13T03:45:47;17.20;99.90
19813;DHT22;10066;48.108;11.448;2023-07-13T03:48:14;17.10;99.90
19813;DHT22;10066;48.108;11.448;2023-07-13T03:50:41;17.10;99.90
19813;DHT22;10066;48.108;11.448;2023-07-13T03:53:08;17.10;99.90
19813;DHT22;10066;48.108;11.448;2023-07-13T03:55:36;17.10;99.90
19813;DHT22;10066;48.108;11.448;2023-07-13T03:58:27;17.10;99.90
19813;DHT22;10066;48.108;11.448;2023-07-13T04:00:54;17.10;99.90
19813;DHT22;10066;48.108;11.448;2023-07-13T04:03:21;17.10;99.90
19813;DHT22;10066;48.108;11.448;2023-07-13T04:05:49;17.00;99.90
19813;DHT22;10066;48.108;11.448;2023-07-13T04:08:16;17.10;99.90
19813;DHT22;10066;48.108;11.448;2023-07-13T04:10:44;17.10;99.90
19813;DHT22;10066;48.108;11.448;2023-07-13T04:13:11;17.10;99.90
19813;DHT22;10066;48.108;11.448;2023-07-13T04:15:39;17.10;99.90
19813;DHT22;10066;48.108;11.448;2023-07-13T04:18:06;17.10;99.90
19813;DHT22;10066;48.108;11.448;2023-07-13T04:20:34;17.10;99.90
19813;DHT22;10066;48.108;11.448;2023-07-13T04:23:01;17.10;99.90
19813;DHT22;10066;48.108;11.448;2023-07-13T04:25:28;17.10;99.90
19813;DHT22;10066;48.108;11.448;2023-07-13T04:27:56;17.10;99.90
19813;DHT22;10066;48.108;11.448;2023-07-13T04:30:24;17.10;99.90
19813;DHT22;10066;48.108;11.448;2023-07-13T04:32:53;17.10;99.90
19813;DHT22;10066;48.108;11.448;2023-07-13T04:35:20;17.10;99.90
19813;DHT22;10066;48.108;11.448;2023-07-13T04:37:48;17.10;99.90
19813;DHT22;10066;48.108;11.448;2023-07-13T04:40:16;17.20;99.90
19813;DHT22;10066;48.108;11.448;2023-07-13T04:42:43;17.20;99.90
19813;DHT22;10066;48.108;11.448;2023-07-13T04:45:12;17.20;99.90
19813;DHT22;10066;48.108;11.448;2023-07-13T04:47:40;17.20;99.90
19813;DHT22;10066;48.108;11.448;2023-07-13T04:50:12;17.20;99.90
19813;DHT22;10066;48.108;11.448;2023-07-13T04:52:40;17.20;99.90
19813;DHT22;10066;48.108;11.448;2023-07-13T04:55:08;17.20;99.90
19813;DHT22;10066;48.108;11.448;2023-07-13T04:57:35;17.30;99.90
19813;DHT22;10066;48.108;11.448;2023-07-13T05:00:03;17.30;99.90
19813;DHT22;10066;48.108;11.448;2023-07-13T05:02:33;17.30;99.90
19813;DHT22;10066;48.108;11.448;2023-07-13T05:05:01;17.40;99.90
19813;DHT22;10066;48.108;11.448;2023-07-13T05:07:30;17.40;99.90
19813;DHT22;10066;48.108;11.448;2023-07-13T05:09:58;17.40;99.90
19813;DHT22;10066;48.108;11.448;2023-07-13T05:12:25;17.40;99.90
19813;DHT22;10066;48.108;11.448;2023-07-13T05:14:52;17.50;99.90
19813;DHT22;10066;48.108;11.448;2023-07-13T05:17:18;17.50;99.90
19813;DHT22;10066;48.108;11.448;2023-07-13T05:19:46;17.50;99.90
19813;DHT22;10066;48.108;11.448;2023-07-13T05:22:12;17.60;99.90
19813;DHT22;10066;48.108;11.448;2023-07-13T05:24:41;17.60;99.90
19813;DHT22;10066;48.108;11.448;2023-07-13T05:27:08;17.60;99.90
19813;DHT22;10066;48.108;11.448;2023-07-13T05:29:34;17.60;99.90
19813;DHT22;10066;48.108;11.448;2023-07-13T05:32:01;17.60;99.90
19813;DHT22;10066;48.108;11.448;2023-07-13T05:34:29;17.60;99.90
19813;DHT22;10066;48.108;11.448;2023-07-13T05:36:56;17.60;99.90
19813;DHT22;10066;48.108;11.448;2023-07-13T05:39:23;17.60;99.90
19813;DHT22;10066;48.108;11.448;2023-07-13T05:41:51;17.60;99.90
19813;DHT22;10066;48.108;11.448;2023-07-13T05:44:18;17.60;99.90
19813;DHT22;10066;48.108;11.448;2023-07-13T05:46:45;17.60;99.90
19813;DHT22;10066;48.108;11.448;2023-07-13T05:49:12;17.60;99.90
19813;DHT22;10066;48.108;11.448;2023-07-13T05:51:39;17.60;99.90
19813;DHT22;10066;48.108;11.448;2023-07-13T05:54:06;17.60;99.90
19813;DHT22;10066;48.108;11.448;2023-07-13T05:56:32;17.70;99.90
19813;DHT22;10066;48.108;11.448;2023-07-13T05:59:01;17.70;99.90
19813;DHT22;10066;48.108;11.448;2023-07-13T06:01:30;17.80;99.90
19813;DHT22;10066;48.108;11.448;2023-07-13T06:03:56;17.80;99.90
19813;DHT22;10066;48.108;11.448;2023-07-13T06:06:23;17.90;99.90
19813;DHT22;10066;48.108;11.448;2023-07-13T06:08:50;18.00;99.90
19813;DHT22;10066;48.108;11.448;2023-07-13T06:11:19;18.10;99.90
19813;DHT22;10066;48.108;11.448;2023-07-13T06:13:47;18.20;99.90
19813;DHT22;10066;48.108;11.448;2023-07-13T06:16:16;18.20;99.90
19813;DHT22;10066;48.108;11.448;2023-07-13T06:18:44;18.20;99.90
19813;DHT22;10066;48.108;11.448;2023-07-13T06:21:12;18.30;99.90
19813;DHT22;10066;48.108;11.448;2023-07-13T06:23:40;18.30;99.90
19813;DHT22;10066;48.108;11.448;2023-07-13T06:26:08;18.30;99.90
19813;DHT22;10066;48.108;11.448;2023-07-13T06:28:36;18.30;99.90
19813;DHT22;10066;48.108;11.448;2023-07-13T06:31:06;18.40;99.90
19813;DHT22;10066;48.108;11.448;2023-07-13T06:33:35;18.50;99.90
19813;DHT22;10066;48.108;11.448;2023-07-13T06:36:03;18.60;99.90
19813;DHT22;10066;48.108;11.448;2023-07-13T06:38:30;18.80;99.90
19813;DHT22;10066;48.108;11.448;2023-07-13T06:40:57;18.90;99.90
19813;DHT22;10066;48.108;11.448;2023-07-13T06:43:24;19.10;99.90
19813;DHT22;10066;48.108;11.448;2023-07-13T06:45:54;19.30;99.90
19813;DHT22;10066;48.108;11.448;2023-07-13T06:48:21;19.40;99.90
19813;DHT22;10066;48.108;11.448;2023-07-13T06:50:50;19.50;99.90
19813;DHT22;10066;48.108;11.448;2023-07-13T06:53:19;19.50;99.90
19813;DHT22;10066;48.108;11.448;2023-07-13T06:55:46;19.50;99.90
19813;DHT22;10066;48.108;11.448;2023-07-13T06:58:15;19.60;99.90
19813;DHT22;10066;48.108;11.448;2023-07-13T07:00:42;19.60;99.90
19813;DHT22;10066;48.108;11.448;2023-07-13T07:03:08;19.70;99.90
19813;DHT22;10066;48.108;11.448;2023-07-13T07:05:35;19.70;99.90
19813;DHT22;10066;48.108;11.448;2023-07-13T07:08:04;19.80;99.90
19813;DHT22;10066;48.108;11.448;2023-07-13T07:10:31;19.90;99.90
19813;DHT22;10066;48.108;11.448;2023-07-13T07:12:59;19.90;99.90
19813;DHT22;10066;48.108;11.448;2023-07-13T07:15:26;20.00;99.90
19813;DHT22;10066;48.108;11.448;2023-07-13T07:17:53;20.10;99.90
19813;DHT22;10066;48.108;11.448;2023-07-13T07:20:21;20.20;99.90
19813;DHT22;10066;48.108;11.448;2023-07-13T07:22:48;20.40;99.90
19813;DHT22;10066;48.108;11.448;2023-07-13T07:25:16;20.40;99.90
19813;DHT22;10066;48.108;11.448;2023-07-13T07:27:44;20.60;99.90
19813;DHT22;10066;48.108;11.448;2023-07-13T07:30:12;20.60;99.90
19813;DHT22;10066;48.108;11.448;2023-07-13T07:32:39;20.50;99.90
19813;DHT22;10066;48.108;11.448;2023-07-13T07:35:07;20.50;99.90
19813;DHT22;10066;48.108;11.448;2023-07-13T07:37:34;20.50;99.90
19813;DHT22;10066;48.108;11.448;2023-07-13T07:40:01;20.40;99.90
19813;DHT22;10066;48.108;11.448;2023-07-13T07:42:29;20.40;99.90
19813;DHT22;10066;48.108;11.448;2023-07-13T07:44:56;20.40;99.90
19813;DHT22;10066;48.108;11.448;2023-07-13T07:47:23;20.30;99.90
19813;DHT22;10066;48.108;11.448;2023-07-13T07:49:51;20.40;99.90
19813;DHT22;10066;48.108;11.448;2023-07-13T07:52:19;20.30;99.90
19813;DHT22;10066;48.108;11.448;2023-07-13T07:54:45;20.30;99.90
19813;DHT22;10066;48.108;11.448;2023-07-13T07:57:13;20.20;99.90
19813;DHT22;10066;48.108;11.448;2023-07-13T07:59:41;20.10;99.90
19813;DHT22;10066;48.108;11.448;2023-07-13T08:02:10;20.10;99.90
19813;DHT22;10066;48.108;11.448;2023-07-13T08:04:37;20.00;99.90
19813;DHT22;10066;48.108;11.448;2023-07-13T08:07:04;19.90;99.90
19813;DHT22;10066;48.108;11.448;2023-07-13T08:09:32;19.80;99.90
19813;DHT22;10066;48.108;11.448;2023-07-13T08:11:59;19.70;99.90
19813;DHT22;10066;48.108;11.448;2023-07-13T08:14:26;19.60;99.90
19813;DHT22;10066;48.108;11.448;2023-07-13T08:16:55;19.60;99.90
19813;DHT22;10066;48.108;11.448;2023-07-13T08:19:21;19.50;99.90
19813;DHT22;10066;48.108;11.448;2023-07-13T08:21:48;19.50;99.90
19813;DHT22;10066;48.108;11.448;2023-07-13T08:24:15;19.40;99.90
19813;DHT22;10066;48.108;11.448;2023-07-13T08:26:44;19.30;99.90
19813;DHT22;10066;48.108;11.448;2023-07-13T08:29:11;19.30;99.90
19813;DHT22;10066;48.108;11.448;2023-07-13T08:31:38;19.20;99.90
19813;DHT22;10066;48.108;11.448;2023-07-13T08:34:07;19.20;99.90
19813;DHT22;10066;48.108;11.448;2023-07-13T08:36:34;19.10;99.90
19813;DHT22;10066;48.108;11.448;2023-07-13T08:39:01;19.10;99.90
19813;DHT22;10066;48.108;11.448;2023-07-13T08:41:28;19.10;99.90
19813;DHT22;10066;48.108;11.448;2023-07-13T08:44:00;19.00;99.90
19813;DHT22;10066;48.108;11.448;2023-07-13T08:46:32;19.00;99.90
19813;DHT22;10066;48.108;11.448;2023-07-13T08:49:02;19.00;99.90
19813;DHT22;10066;48.108;11.448;2023-07-13T08:51:37;19.00;99.90
19813;DHT22;10066;48.108;11.448;2023-07-13T08:54:12;19.00;99.90
19813;DHT22;10066;48.108;11.448;2023-07-13T08:56:41;19.00;99.90
19813;DHT22;10066;48.108;11.448;2023-07-13T08:59:13;19.00;99.90
19813;DHT22;10066;48.108;11.448;2023-07-13T09:01:52;19.00;99.90
19813;DHT22;10066;48.108;11.448;2023-07-13T09:04:23;19.10;99.90
19813;DHT22;10066;48.108;11.448;2023-07-13T09:07:01;19.20;99.90
19813;DHT22;10066;48.108;11.448;2023-07-13T09:09:37;19.20;99.90
19813;DHT22;10066;48.108;11.448;2023-07-13T09:12:10;19.20;99.90
19813;DHT22;10066;48.108;11.448;2023-07-13T09:14:43;19.30;99.90
19813;DHT22;10066;48.108;11.448;2023-07-13T09:17:17;19.30;99.90
19813;DHT22;10066;48.108;11.448;2023-07-13T09:19:49;19.30;99.90
19813;DHT22;10066;48.108;11.448;2023-07-13T09:22:19;19.40;99.90
19813;DHT22;10066;48.108;11.448;2023-07-13T09:24:54;19.50;99.90
19813;DHT22;10066;48.108;11.448;2023-07-13T09:27:23;19.60;99.90
19813;DHT22;10066;48.108;11.448;2023-07-13T09:29:57;19.60;99.90
19813;DHT22;10066;48.108;11.448;2023-07-13T09:32:27;19.70;99.90
19813;DHT22;10066;48.108;11.448;2023-07-13T09:34:55;19.80;99.90
19813;DHT22;10066;48.108;11.448;2023-07-13T09:37:30;20.00;99.90
19813;DHT22;10066;48.108;11.448;2023-07-13T09:39:59;20.10;99.90
19813;DHT22;10066;48.108;11.448;2023-07-13T09:42:31;20.20;99.90
19813;DHT22;10066;48.108;11.448;2023-07-13T09:45:00;20.30;99.90
19813;DHT22;10066;48.108;11.448;2023-07-13T09:47:31;20.40;99.90
19813;DHT22;10066;48.108;11.448;2023-07-13T09:49:59;20.50;99.90
19813;DHT22;10066;48.108;11.448;2023-07-13T09:52:40;20.50;99.90
19813;DHT22;10066;48.108;11.448;2023-07-13T09:55:24;20.60;99.90
19813;DHT22;10066;48.108;11.448;2023-07-13T09:57:51;20.70;99.90
19813;DHT22;10066;48.108;11.448;2023-07-13T10:00:23;20.70;99.90
19813;DHT22;10066;48.108;11.448;2023-07-13T10:03:00;20.80;99.90
19813;DHT22;10066;48.108;11.448;2023-07-13T10:05:37;20.80;99.90
19813;DHT22;10066;48.108;11.448;2023-07-13T10:08:16;20.90;99.90
19813;DHT22;10066;48.108;11.448;2023-07-13T10:10:44;21.00;99.90
19813;DHT22;10066;48.108;11.448;2023-07-13T10:13:34;21.00;99.90
19813;DHT22;10066;48.108;11.448;2023-07-13T10:16:04;21.20;99.90
19813;DHT22;10066;48.108;11.448;2023-07-13T10:18:35;21.20;99.90
19813;DHT22;10066;48.108;11.448;2023-07-13T10:21:16;21.40;99.90
19813;DHT22;10066;48.108;11.448;2023-07-13T10:23:45;21.60;99.90
19813;DHT22;10066;48.108;11.448;2023-07-13T10:26:18;21.70;99.90
19813;DHT22;10066;48.108;11.448;2023-07-13T10:28:51;21.90;99.90
19813;DHT22;10066;48.108;11.448;2023-07-13T10:31:21;22.00;99.90
19813;DHT22;10066;48.108;11.448;2023-07-13T10:33:49;22.20;99.90
19813;DHT22;10066;48.108;11.448;2023-07-13T10:36:28;22.30;99.90
19813;DHT22;10066;48.108;11.448;2023-07-13T10:39:00;22.30;97.60
19813;DHT22;10066;48.108;11.448;2023-07-13T10:41:29;22.20;99.20
19813;DHT22;10066;48.108;11.448;2023-07-13T10:43:58;22.40;99.90
19813;DHT22;10066;48.108;11.448;2023-07-13T10:46:28;22.60;99.90
19813;DHT22;10066;48.108;11.448;2023-07-13T10:49:01;22.70;99.90
19813;DHT22;10066;48.108;11.448;2023-07-13T10:51:30;22.90;99.90
19813;DHT22;10066;48.108;11.448;2023-07-13T10:54:17;23.10;99.90
19813;DHT22;10066;48.108;11.448;2023-07-13T10:56:48;23.20;94.10
19813;DHT22;10066;48.108;11.448;2023-07-13T10:59:18;23.30;99.10
19813;DHT22;10066;48.108;11.448;2023-07-13T11:01:53;23.50;99.90
19813;DHT22;10066;48.108;11.448;2023-07-13T11:04:21;23.70;97.40
19813;DHT22;10066;48.108;11.448;2023-07-13T11:06:52;23.90;98.50
19813;DHT22;10066;48.108;11.448;2023-07-13T11:09:37;24.10;99.70
19813;DHT22;10066;48.108;11.448;2023-07-13T11:12:27;24.10;91.40
19813;DHT22;10066;48.108;11.448;2023-07-13T11:15:11;24.00;97.00
19813;DHT22;10066;48.108;11.448;2023-07-13T11:17:48;24.10;97.20
19813;DHT22;10066;48.108;11.448;2023-07-13T11:20:32;24.00;92.70
19813;DHT22;10066;48.108;11.448;2023-07-13T11:23:28;23.80;94.30
19813;DHT22;10066;48.108;11.448;2023-07-13T11:25:58;23.90;96.00
19813;DHT22;10066;48.108;11.448;2023-07-13T11:28:29;24.10;99.80
19813;DHT22;10066;48.108;11.448;2023-07-13T11:31:02;24.10;98.30
19813;DHT22;10066;48.108;11.448;2023-07-13T11:33:53;24.20;98.80
19813;DHT22;10066;48.108;11.448;2023-07-13T11:36:21;24.30;97.40
19813;DHT22;10066;48.108;11.448;2023-07-13T11:38:57;24.50;99.90
19813;DHT22;10066;48.108;11.448;2023-07-13T11:41:30;24.60;99.00
19813;DHT22;10066;48.108;11.448;2023-07-13T11:44:07;24.80;99.90
19813;DHT22;10066;48.108;11.448;2023-07-13T11:46:34;24.80;98.40
19813;DHT22;10066;48.108;11.448;2023-07-13T11:49:05;24.80;99.90
19813;DHT22;10066;48.108;11.448;2023-07-13T11:51:34;24.80;99.90
19813;DHT22;10066;48.108;11.448;2023-07-13T11:54:03;24.80;99.50
19813;DHT22;10066;48.108;11.448;2023-07-13T11:56:35;24.60;95.90
19813;DHT22;10066;48.108;11.448;2023-07-13T11:59:06;24.10;94.30
19813;DHT22;10066;48.108;11.448;2023-07-13T12:01:33;23.90;96.30
19813;DHT22;10066;48.108;11.448;2023-07-13T12:04:02;23.70;96.30
19813;DHT22;10066;48.108;11.448;2023-07-13T12:06:31;23.50;97.90
19813;DHT22;10066;48.108;11.448;2023-07-13T12:08:59;23.50;99.40
19813;DHT22;10066;48.108;11.448;2023-07-13T12:11:27;23.50;99.90
19813;DHT22;10066;48.108;11.448;2023-07-13T12:13:56;23.50;99.20
19813;DHT22;10066;48.108;11.448;2023-07-13T12:16:29;23.40;97.80
19813;DHT22;10066;48.108;11.448;2023-07-13T12:18:59;23.40;98.20
19813;DHT22;10066;48.108;11.448;2023-07-13T12:21:31;23.40;95.40
19813;DHT22;10066;48.108;11.448;2023-07-13T12:23:59;23.30;92.90
19813;DHT22;10066;48.108;11.448;2023-07-13T12:26:29;23.30;94.80
19813;DHT22;10066;48.108;11.448;2023-07-13T12:28:59;23.30;93.40
19813;DHT22;10066;48.108;11.448;2023-07-13T12:31:33;23.50;94.60
19813;DHT22;10066;48.108;11.448;2023-07-13T12:34:03;23.70;96.00
19813;DHT22;10066;48.108;11.448;2023-07-13T12:36:34;23.80;96.90
19813;DHT22;10066;48.108;11.448;2023-07-13T12:39:09;24.00;98.10
19813;DHT22;10066;48.108;11.448;2023-07-13T12:41:39;24.10;94.60
19813;DHT22;10066;48.108;11.448;2023-07-13T12:44:11;24.10;96.10
19813;DHT22;10066;48.108;11.448;2023-07-13T12:46:39;24.20;96.40
19813;DHT22;10066;48.108;11.448;2023-07-13T12:49:07;24.30;98.10
19813;DHT22;10066;48.108;11.448;2023-07-13T12:51:34;24.40;97.50
19813;DHT22;10066;48.108;11.448;2023-07-13T12:54:13;24.60;97.80
19813;DHT22;10066;48.108;11.448;2023-07-13T12:56:41;24.70;97.60
19813;DHT22;10066;48.108;11.448;2023-07-13T12:59:19;24.90;99.00
19813;DHT22;10066;48.108;11.448;2023-07-13T13:01:47;24.90;96.60
19813;DHT22;10066;48.108;11.448;2023-07-13T13:04:16;25.10;98.20
19813;DHT22;10066;48.108;11.448;2023-07-13T13:06:47;25.20;96.90
19813;DHT22;10066;48.108;11.448;2023-07-13T13:09:16;25.30;97.30
19813;DHT22;10066;48.108;11.448;2023-07-13T13:11:44;25.40;96.70
19813;DHT22;10066;48.108;11.448;2023-07-13T13:14:12;25.50;96.00
19813;DHT22;10066;48.108;11.448;2023-07-13T13:16:47;25.40;94.50
19813;DHT22;10066;48.108;11.448;2023-07-13T13:19:17;25.50;95.70
19813;DHT22;10066;48.108;11.448;2023-07-13T13:21:46;25.50;96.50
19813;DHT22;10066;48.108;11.448;2023-07-13T13:24:13;25.40;96.30
19813;DHT22;10066;48.108;11.448;2023-07-13T13:26:41;25.50;96.90
19813;DHT22;10066;48.108;11.448;2023-07-13T13:29:13;25.50;96.50
19813;DHT22;10066;48.108;11.448;2023-07-13T13:31:41;25.60;93.50
19813;DHT22;10066;48.108;11.448;2023-07-13T13:34:10;25.60;93.90
19813;DHT22;10066;48.108;11.448;2023-07-13T13:36:37;25.50;93.30
19813;DHT22;10066;48.108;11.448;2023-07-13T13:39:16;25.50;94.70
19813;DHT22;10066;48.108;11.448;2023-07-13T13:41:45;25.50;94.10
19813;DHT22;10066;48.108;11.448;2023-07-13T13:44:14;25.60;94.90
19813;DHT22;10066;48.108;11.448;2023-07-13T13:46:41;25.60;94.40
19813;DHT22;10066;48.108;11.448;2023-07-13T13:49:13;25.60;95.40
19813;DHT22;10066;48.108;11.448;2023-07-13T13:51:41;25.70;94.00
19813;DHT22;10066;48.108;11.448;2023-07-13T13:54:14;25.70;94.00
19813;DHT22;10066;48.108;11.448;2023-07-13T13:56:42;25.70;93.40
19813;DHT22;10066;48.108;11.448;2023-07-13T13:59:10;25.70;93.10
19813;DHT22;10066;48.108;11.448;2023-07-13T14:01:38;25.50;91.40
19813;DHT22;10066;48.108;11.448;2023-07-13T14:04:08;25.50;92.80
19813;DHT22;10066;48.108;11.448;2023-07-13T14:06:35;25.60;93.30
19813;DHT22;10066;48.108;11.448;2023-07-13T14:09:02;25.50;92.80
19813;DHT22;10066;48.108;11.448;2023-07-13T14:11:31;25.60;92.00
19813;DHT22;10066;48.108;11.448;2023-07-13T14:13:59;25.60;91.60
19813;DHT22;10066;48.108;11.448;2023-07-13T14:16:30;25.60;92.50
19813;DHT22;10066;48.108;11.448;2023-07-13T14:19:00;25.60;92.10
19813;DHT22;10066;48.108;11.448;2023-07-13T14:21:29;25.50;90.90
19813;DHT22;10066;48.108;11.448;2023-07-13T14:23:56;25.50;92.00
19813;DHT22;10066;48.108;11.448;2023-07-13T14:26:25;25.40;92.00
19813;DHT22;10066;48.108;11.448;2023-07-13T14:28:55;25.40;92.60
19813;DHT22;10066;48.108;11.448;2023-07-13T14:31:24;25.50;92.60
19813;DHT22;10066;48.108;11.448;2023-07-13T14:33:51;25.50;92.60
19813;DHT22;10066;48.108;11.448;2023-07-13T14:36:29;25.60;92.50
19813;DHT22;10066;48.108;11.448;2023-07-13T14:38:57;25.60;91.70
19813;DHT22;10066;48.108;11.448;2023-07-13T14:41:24;25.60;92.50
19813;DHT22;10066;48.108;11.448;2023-07-13T14:43:51;25.60;91.90
19813;DHT22;10066;48.108;11.448;2023-07-13T14:46:27;25.50;91.70
19813;DHT22;10066;48.108;11.448;2023-07-13T14:49:00;25.40;91.70
19813;DHT22;10066;48.108;11.448;2023-07-13T14:51:29;25.30;91.90
19813;DHT22;10066;48.108;11.448;2023-07-13T14:53:57;25.40;91.90
19813;DHT22;10066;48.108;11.448;2023-07-13T14:56:25;25.40;92.10
19813;DHT22;10066;48.108;11.448;2023-07-13T14:58:51;25.40;92.00
19813;DHT22;10066;48.108;11.448;2023-07-13T15:01:19;25.40;91.70
19813;DHT22;10066;48.108;11.448;2023-07-13T15:03:50;25.40;91.30
19813;DHT22;10066;48.108;11.448;2023-07-13T15:06:18;25.30;90.90
19813;DHT22;10066;48.108;11.448;2023-07-13T15:08:47;25.10;90.50
19813;DHT22;10066;48.108;11.448;2023-07-13T15:11:15;24.80;89.50
19813;DHT22;10066;48.108;11.448;2023-07-13T15:13:43;24.60;88.30
19813;DHT22;10066;48.108;11.448;2023-07-13T15:16:16;24.30;90.50
19813;DHT22;10066;48.108;11.448;2023-07-13T15:18:44;24.30;90.40
19813;DHT22;10066;48.108;11.448;2023-07-13T15:21:14;24.20;89.60
19813;DHT22;10066;48.108;11.448;2023-07-13T15:23:43;23.90;84.60
19813;DHT22;10066;48.108;11.448;2023-07-13T15:26:13;23.60;86.50
19813;DHT22;10066;48.108;11.448;2023-07-13T15:28:41;23.50;87.10
19813;DHT22;10066;48.108;11.448;2023-07-13T15:31:18;23.40;89.20